createdAt,value
2022-08-05T00:01:35.928Z,22.80
2022-08-05T00:04:08.383Z,22.77
2022-08-05T00:06:37.080Z,22.72
2022-08-05T00:09:12.762Z,22.73
2022-08-05T00:11:48.804Z,22.71
2022-08-05T00:14:27.667Z,22.68
2022-08-05T00:16:58.014Z,22.59
2022-08-05T00:19:33.305Z,22.64
2022-08-05T00:22:11.775Z,22.61
2022-08-05T00:24:42.438Z,22.58
2022-08-05T00:27:28.542Z,22.55
2022-08-05T00:30:00.452Z,22.51
2022-08-05T00:32:31.669Z,22.47
2022-08-05T00:35:06.646Z,22.44
2022-08-05T00:37:51.159Z,22.41
2022-08-05T00:40:27.361Z,22.38
2022-08-05T00:43:01.745Z,22.35
2022-08-05T00:45:38.537Z,22.31
2022-08-05T00:48:10.196Z,22.29
2022-08-05T00:50:44.087Z,22.24
2022-08-05T00:53:59.959Z,22.20
2022-08-05T00:56:02.833Z,22.15
2022-08-05T00:58:31.459Z,22.12
2022-08-05T01:00:59.925Z,22.09
2022-08-05T01:03:30.929Z,22.06
2022-08-05T01:06:05.499Z,22.02
2022-08-05T01:08:43.184Z,21.99
2022-08-05T01:11:33.859Z,21.95
2022-08-05T01:14:16.332Z,21.91
2022-08-05T01:16:54.852Z,21.86
2022-08-05T01:19:46.331Z,21.82
2022-08-05T01:22:34.131Z,21.78
2022-08-05T01:25:02.292Z,21.74
2022-08-05T01:28:00.540Z,21.71
2022-08-05T01:30:35.050Z,21.67
2022-08-05T01:33:08.646Z,21.64
2022-08-05T01:35:52.239Z,21.61
2022-08-05T01:38:27.241Z,21.58
2022-08-05T01:41:00.034Z,21.58
2022-08-05T01:43:31.830Z,21.60
2022-08-05T01:46:07.190Z,21.59
2022-08-05T01:48:49.458Z,21.58
2022-08-05T01:51:19.707Z,21.55
2022-08-05T01:53:58.004Z,21.52
2022-08-05T01:58:09.771Z,21.49
2022-08-05T01:59:23.641Z,21.45
2022-08-05T02:01:55.578Z,21.42
2022-08-05T02:04:29.077Z,21.39
2022-08-05T02:06:59.187Z,21.30
2022-08-05T02:09:28.148Z,21.31
2022-08-05T02:12:14.041Z,21.26
2022-08-05T02:14:49.835Z,21.21
2022-08-05T02:18:28.686Z,21.16
2022-08-05T02:20:20.932Z,21.12
2022-08-05T02:23:03.283Z,21.07
2022-08-05T02:25:49.573Z,21.04
2022-08-05T02:28:29.059Z,21.02
2022-08-05T02:31:06.114Z,21.01
2022-08-05T02:33:41.014Z,20.99
2022-08-05T02:36:13.528Z,20.96
2022-08-05T02:38:53.259Z,20.92
2022-08-05T02:41:29.017Z,20.87
2022-08-05T02:44:11.891Z,20.83
2022-08-05T02:46:44.035Z,20.80
2022-08-05T02:49:37.079Z,20.75
2022-08-05T02:52:26.038Z,20.71
2022-08-05T02:55:05.139Z,20.68
2022-08-05T02:58:11.047Z,20.64
2022-08-05T03:00:25.273Z,20.61
2022-08-05T03:02:56.563Z,20.59
2022-08-05T03:06:56.734Z,20.56
2022-08-05T03:08:14.783Z,20.57
2022-08-05T03:11:01.311Z,20.57
2022-08-05T03:13:51.187Z,20.55
2022-08-05T03:16:22.829Z,20.46
2022-08-05T03:18:51.558Z,20.50
2022-08-05T03:21:22.598Z,20.48
2022-08-05T03:23:58.262Z,20.46
2022-08-05T03:26:31.918Z,20.43
2022-08-05T03:29:01.511Z,20.41
2022-08-05T03:31:55.469Z,20.37
2022-08-05T03:34:19.641Z,20.34
2022-08-05T03:36:52.935Z,20.35
2022-08-05T03:39:27.259Z,20.35
2022-08-05T03:41:57.120Z,20.34
2022-08-05T03:44:28.900Z,20.32
2022-08-05T03:46:57.339Z,20.31
2022-08-05T03:49:31.185Z,20.30
2022-08-05T03:52:49.296Z,20.28
2022-08-05T03:56:04.906Z,20.29
2022-08-05T03:58:15.522Z,20.30
2022-08-05T04:00:51.494Z,20.30
2022-08-05T04:03:28.479Z,20.30
2022-08-05T04:05:59.249Z,20.31
2022-08-05T04:08:36.427Z,20.33
2022-08-05T04:11:08.606Z,20.35
2022-08-05T04:13:51.376Z,20.37
2022-08-05T04:16:24.104Z,20.39
2022-08-05T04:18:54.761Z,20.40
2022-08-05T04:22:09.431Z,20.44
2022-08-05T04:24:19.107Z,20.46
2022-08-05T04:26:50.889Z,20.47
2022-08-05T04:29:21.007Z,20.52
2022-08-05T04:31:49.744Z,20.54
2022-08-05T04:34:32.839Z,20.55
2022-08-05T04:37:03.153Z,20.60
2022-08-05T04:39:32.414Z,20.64
2022-08-05T04:42:04.110Z,20.70
2022-08-05T04:44:32.391Z,20.77
2022-08-05T04:47:09.848Z,20.82
2022-08-05T04:50:02.086Z,20.90
2022-08-05T04:52:28.379Z,20.97
2022-08-05T04:54:57.283Z,21.02
2022-08-05T04:57:28.606Z,21.08
2022-08-05T04:59:58.625Z,21.15
2022-08-05T05:02:41.112Z,21.22
2022-08-05T05:05:16.737Z,21.30
2022-08-05T05:08:02.891Z,21.37
2022-08-05T05:10:33.831Z,21.44
2022-08-05T05:13:04.360Z,21.55
2022-08-05T05:15:56.866Z,21.65
2022-08-05T05:18:31.441Z,21.75
2022-08-05T05:21:05.540Z,21.86
2022-08-05T05:24:02.205Z,21.97
2022-08-05T05:26:28.768Z,22.09
2022-08-05T05:29:14.493Z,22.22
2022-08-05T05:31:46.489Z,22.38
2022-08-05T05:34:15.419Z,22.52
2022-08-05T05:36:44.206Z,22.65
2022-08-05T05:39:15.485Z,22.78
2022-08-05T05:41:54.488Z,22.88
2022-08-05T05:44:36.443Z,23.00
2022-08-05T05:47:13.163Z,23.15
2022-08-05T05:49:56.571Z,23.30
2022-08-05T05:52:29.813Z,23.42
2022-08-05T05:55:07.364Z,23.57
2022-08-05T05:57:52.031Z,23.73
2022-08-05T06:00:31.510Z,23.90
2022-08-05T06:03:03.603Z,24.05
2022-08-05T06:05:54.264Z,24.21
2022-08-05T06:08:32.241Z,24.36
2022-08-05T06:11:01.674Z,24.53
2022-08-05T06:13:40.527Z,24.67
2022-08-05T06:16:31.517Z,24.89
2022-08-05T06:19:01.985Z,25.08
2022-08-05T06:21:36.569Z,25.25
2022-08-05T06:24:11.518Z,25.42
2022-08-05T06:26:52.072Z,25.56
2022-08-05T06:29:23.697Z,25.72
2022-08-05T06:32:25.013Z,25.88
2022-08-05T06:34:57.099Z,26.00
2022-08-05T06:37:56.273Z,26.12
2022-08-05T06:40:21.111Z,26.28
2022-08-05T06:42:53.565Z,26.46
2022-08-05T06:45:55.483Z,26.60
2022-08-05T06:48:46.945Z,26.78
2022-08-05T06:51:00.402Z,26.97
2022-08-05T06:53:30.172Z,27.15
2022-08-05T06:56:25.650Z,27.29
2022-08-05T06:58:56.545Z,27.48
2022-08-05T07:01:32.092Z,27.63
2022-08-05T07:04:03.154Z,27.80
2022-08-05T07:06:32.288Z,27.96
2022-08-05T07:09:04.357Z,28.11
2022-08-05T07:11:36.920Z,28.27
2022-08-05T07:14:29.294Z,28.44
2022-08-05T07:18:01.163Z,28.56
2022-08-05T07:20:31.603Z,28.61
2022-08-05T07:22:43.930Z,28.70
2022-08-05T07:25:53.904Z,28.78
2022-08-05T07:28:08.209Z,28.91
2022-08-05T07:30:40.318Z,29.05
2022-08-05T07:33:15.730Z,29.17
2022-08-05T07:36:02.115Z,29.32
2022-08-05T07:38:43.217Z,29.48
2022-08-05T07:42:14.448Z,29.58
2022-08-05T07:44:25.912Z,29.77
2022-08-05T07:46:56.445Z,29.93
2022-08-05T07:49:28.637Z,30.07
2022-08-05T07:51:59.428Z,30.21
2022-08-05T07:54:33.652Z,30.33
2022-08-05T07:57:13.916Z,30.47
2022-08-05T07:59:55.278Z,30.60
2022-08-05T08:02:31.330Z,30.69
2022-08-05T08:05:19.954Z,30.85
2022-08-05T08:08:00.188Z,30.97
2022-08-05T08:10:34.978Z,31.11
2022-08-05T08:13:07.814Z,31.24
2022-08-05T08:16:34.532Z,31.37
2022-08-05T08:18:39.985Z,31.51
2022-08-05T08:21:17.433Z,31.64
2022-08-05T08:24:01.885Z,31.75
2022-08-05T08:26:33.708Z,31.84
2022-08-05T08:29:29.303Z,31.94
2022-08-05T08:31:57.269Z,32.05
2022-08-05T08:34:30.448Z,32.16
2022-08-05T08:37:07.073Z,32.28
2022-08-05T08:39:38.274Z,32.38
2022-08-05T08:42:33.690Z,32.49
2022-08-05T08:45:19.669Z,32.62
2022-08-05T08:48:11.757Z,32.76
2022-08-05T08:51:04.084Z,32.88
2022-08-05T08:53:45.027Z,33.00
2022-08-05T08:56:14.990Z,33.04
2022-08-05T08:58:47.682Z,33.07
2022-08-05T09:01:22.105Z,33.14
2022-08-05T09:03:57.576Z,33.22
2022-08-05T09:06:36.205Z,33.34
2022-08-05T09:09:06.478Z,33.44
2022-08-05T09:11:51.025Z,33.52
2022-08-05T09:14:56.816Z,33.59
2022-08-05T09:17:40.188Z,33.66
2022-08-05T09:20:05.950Z,33.73
2022-08-05T09:23:19.756Z,33.84
2022-08-05T09:26:02.375Z,33.94
2022-08-05T09:28:36.137Z,34.02
2022-08-05T09:31:44.192Z,34.09
2022-08-05T09:34:09.796Z,34.13
2022-08-05T09:36:54.954Z,34.17
2022-08-05T09:39:45.434Z,34.26
2022-08-05T09:42:24.002Z,34.38
2022-08-05T09:46:04.821Z,34.48
2022-08-05T09:47:56.752Z,34.60
2022-08-05T09:50:44.435Z,34.70
2022-08-05T09:53:23.074Z,34.81
2022-08-05T09:56:04.967Z,34.91
2022-08-05T09:58:42.011Z,34.91
2022-08-05T10:01:22.674Z,35.09
2022-08-05T10:04:12.663Z,35.18
2022-08-05T10:06:59.131Z,35.26
2022-08-05T10:09:29.878Z,35.34
2022-08-05T10:12:18.589Z,35.38
2022-08-05T10:15:21.046Z,35.47
2022-08-05T10:18:07.014Z,35.53
2022-08-05T10:20:41.924Z,35.61
2022-08-05T10:23:34.007Z,35.63
2022-08-05T10:26:07.366Z,35.75
2022-08-05T10:28:45.083Z,35.85
2022-08-05T10:32:55.160Z,35.87
2022-08-05T10:34:08.309Z,35.96
2022-08-05T10:36:39.803Z,36.00
2022-08-05T10:39:24.161Z,35.97
2022-08-05T10:42:08.239Z,36.02
2022-08-05T10:44:46.425Z,36.13
2022-08-05T10:47:26.289Z,36.23
2022-08-05T10:50:32.196Z,36.29
2022-08-05T10:53:00.551Z,36.38
2022-08-05T10:55:38.462Z,36.47
2022-08-05T10:58:20.942Z,36.51
2022-08-05T11:00:55.476Z,36.49
2022-08-05T11:03:31.732Z,36.41
2022-08-05T11:06:05.804Z,36.34
2022-08-05T11:08:39.350Z,36.30
2022-08-05T11:11:44.592Z,36.35
2022-08-05T11:14:56.343Z,36.46
2022-08-05T11:17:57.499Z,36.49
2022-08-05T11:20:33.099Z,36.42
2022-08-05T11:23:06.116Z,36.46
2022-08-05T11:26:05.971Z,36.50
2022-08-05T11:28:36.044Z,36.57
2022-08-05T11:31:07.790Z,36.61
2022-08-05T11:33:52.592Z,36.65
2022-08-05T11:36:42.736Z,36.64
2022-08-05T11:39:14.467Z,36.73
2022-08-05T11:42:00.632Z,36.76
2022-08-05T11:44:53.123Z,36.77
2022-08-05T11:47:48.683Z,36.75
2022-08-05T11:50:15.770Z,36.72
2022-08-05T11:52:46.137Z,36.69
2022-08-05T11:55:17.525Z,36.70
2022-08-05T11:58:09.999Z,36.68
2022-08-05T12:00:38.496Z,36.69
2022-08-05T12:03:42.116Z,36.70
2022-08-05T12:06:28.972Z,36.73
2022-08-05T12:09:00.694Z,36.67
2022-08-05T12:11:40.080Z,36.59
2022-08-05T12:14:10.824Z,36.54
2022-08-05T12:16:58.680Z,36.53
2022-08-05T12:20:25.469Z,36.57
2022-08-05T12:22:49.328Z,36.55
2022-08-05T12:25:23.691Z,36.54
2022-08-05T12:27:59.048Z,36.56
2022-08-05T12:30:39.175Z,36.57
2022-08-05T12:33:27.328Z,36.55
2022-08-05T12:35:58.163Z,36.57
2022-08-05T12:38:31.400Z,36.58
2022-08-05T12:41:00.944Z,36.61
2022-08-05T12:43:32.067Z,36.62
2022-08-05T12:46:06.791Z,36.64
2022-08-05T12:48:44.284Z,36.64
2022-08-05T12:52:10.643Z,36.61
2022-08-05T12:54:14.723Z,36.60
2022-08-05T12:57:09.562Z,36.58
2022-08-05T13:01:57.535Z,36.61
2022-08-05T13:02:50.874Z,36.59
2022-08-05T13:05:37.387Z,36.59
2022-08-05T13:08:08.659Z,36.59
2022-08-05T13:10:50.286Z,36.59
2022-08-05T13:14:04.667Z,36.60
2022-08-05T13:16:15.310Z,36.51
2022-08-05T13:18:57.883Z,36.59
2022-08-05T13:21:47.974Z,36.59
2022-08-05T13:24:27.624Z,36.63
2022-08-05T13:27:11.064Z,36.59
2022-08-05T13:30:32.664Z,36.53
2022-08-05T13:32:39.504Z,36.49
2022-08-05T13:35:12.203Z,36.57
2022-08-05T13:37:43.769Z,36.56
2022-08-05T13:40:35.595Z,36.55
2022-08-05T13:43:02.846Z,36.59
2022-08-05T13:45:38.518Z,36.61
2022-08-05T13:48:58.742Z,36.67
2022-08-05T13:51:12.240Z,36.72
2022-08-05T13:53:48.076Z,36.76
2022-08-05T13:56:18.407Z,36.77
2022-08-05T13:58:53.123Z,36.75
2022-08-05T14:01:27.413Z,36.73
2022-08-05T14:04:29.976Z,36.72
2022-08-05T14:07:25.179Z,36.71
2022-08-05T14:09:47.919Z,36.70
2022-08-05T14:12:32.159Z,36.68
2022-08-05T14:16:05.681Z,36.66
2022-08-05T14:17:55.036Z,36.67
2022-08-05T14:20:32.754Z,36.68
2022-08-05T14:23:01.964Z,36.69
2022-08-05T14:25:32.098Z,36.73
2022-08-05T14:28:00.571Z,36.73
2022-08-05T14:30:29.856Z,36.73
2022-08-05T14:32:59.064Z,36.74
2022-08-05T14:35:36.962Z,36.72
2022-08-05T14:38:31.787Z,36.71
2022-08-05T14:41:07.770Z,36.71
2022-08-05T14:43:59.127Z,36.72
2022-08-05T14:46:29.550Z,36.70
2022-08-05T14:49:07.000Z,36.70
2022-08-05T14:51:42.819Z,36.72
2022-08-05T14:54:27.892Z,36.73
2022-08-05T14:56:59.669Z,36.74
2022-08-05T14:59:35.705Z,36.73
2022-08-05T15:02:14.646Z,36.70
2022-08-05T15:04:47.783Z,36.66
2022-08-05T15:08:08.873Z,36.62
2022-08-05T15:10:09.710Z,36.59
2022-08-05T15:12:59.756Z,36.56
2022-08-05T15:15:55.434Z,36.59
2022-08-05T15:18:20.822Z,36.59
2022-08-05T15:20:50.913Z,36.60
2022-08-05T15:23:22.127Z,36.60
2022-08-05T15:25:56.613Z,36.47
2022-08-05T15:28:28.827Z,36.58
2022-08-05T15:31:00.431Z,36.57
2022-08-05T15:34:18.495Z,36.54
2022-08-05T15:36:24.606Z,36.52
2022-08-05T15:41:01.709Z,36.51
2022-08-05T15:41:58.420Z,36.51
2022-08-05T15:44:30.427Z,36.50
2022-08-05T15:47:02.050Z,36.47
2022-08-05T15:49:48.137Z,36.45
2022-08-05T15:52:29.545Z,36.44
2022-08-05T15:55:15.728Z,36.40
2022-08-05T15:57:49.073Z,36.39
2022-08-05T16:00:25.817Z,36.35
2022-08-05T16:03:04.756Z,36.28
2022-08-05T16:05:36.070Z,36.23
2022-08-05T16:08:16.037Z,36.18
2022-08-05T16:10:47.296Z,36.14
2022-08-05T16:13:23.595Z,36.05
2022-08-05T16:15:56.213Z,36.07
2022-08-05T16:18:31.058Z,36.03
2022-08-05T16:21:05.225Z,35.98
2022-08-05T16:23:53.796Z,35.90
2022-08-05T16:26:26.530Z,35.77
2022-08-05T16:28:56.663Z,35.56
2022-08-05T16:31:26.264Z,35.34
2022-08-05T16:34:25.231Z,35.14
2022-08-05T16:37:00.922Z,34.97
2022-08-05T16:40:04.484Z,34.85
2022-08-05T16:42:28.239Z,34.71
2022-08-05T16:45:01.177Z,34.56
2022-08-05T16:47:48.279Z,34.40
2022-08-05T16:50:33.062Z,34.25
2022-08-05T16:53:12.690Z,34.15
2022-08-05T16:55:54.156Z,34.01
2022-08-05T16:58:26.325Z,33.94
2022-08-05T17:00:55.585Z,33.81
2022-08-05T17:03:25.730Z,33.68
2022-08-05T17:05:59.729Z,33.56
2022-08-05T17:08:36.748Z,33.45
2022-08-05T17:11:26.770Z,33.34
2022-08-05T17:14:13.123Z,33.25
2022-08-05T17:16:53.383Z,33.16
2022-08-05T17:19:22.467Z,33.09
2022-08-05T17:21:51.509Z,33.01
2022-08-05T17:24:35.313Z,32.94
2022-08-05T17:27:09.425Z,32.86
2022-08-05T17:29:41.261Z,32.79
2022-08-05T17:32:17.048Z,32.72
2022-08-05T17:34:47.783Z,32.64
2022-08-05T17:37:40.721Z,32.45
2022-08-05T17:40:12.113Z,32.23
2022-08-05T17:42:51.282Z,31.91
2022-08-05T17:45:38.268Z,31.66
2022-08-05T17:48:08.285Z,31.51
2022-08-05T17:50:37.168Z,31.41
2022-08-05T17:53:08.423Z,31.35
2022-08-05T17:55:39.961Z,31.30
2022-08-05T17:58:12.648Z,31.23
2022-08-05T18:00:45.366Z,31.19
2022-08-05T18:03:48.459Z,31.09
2022-08-05T18:06:11.691Z,31.12
2022-08-05T18:08:52.462Z,31.10
2022-08-05T18:11:32.421Z,31.22
2022-08-05T18:14:06.575Z,31.31
2022-08-05T18:16:49.609Z,31.24
2022-08-05T18:19:30.048Z,31.09
2022-08-05T18:22:08.805Z,30.93
2022-08-05T18:24:53.719Z,30.77
2022-08-05T18:27:23.307Z,30.63
2022-08-05T18:29:54.767Z,30.49
2022-08-05T18:32:28.433Z,30.39
2022-08-05T18:34:58.613Z,30.30
2022-08-05T18:37:33.995Z,30.21
2022-08-05T18:41:49.926Z,30.14
2022-08-05T18:43:03.396Z,30.06
2022-08-05T18:45:41.511Z,29.98
2022-08-05T18:48:30.170Z,29.89
2022-08-05T18:52:05.820Z,29.77
2022-08-05T18:54:12.600Z,29.68
2022-08-05T18:56:41.802Z,29.59
2022-08-05T18:59:42.778Z,29.55
2022-08-05T19:02:36.606Z,29.46
2022-08-05T19:06:06.160Z,29.39
2022-08-05T19:07:58.416Z,29.29
2022-08-05T19:10:30.544Z,29.22
2022-08-05T19:12:59.287Z,29.13
2022-08-05T19:15:56.825Z,29.05
2022-08-05T19:18:22.209Z,28.94
2022-08-05T19:20:52.614Z,28.85
2022-08-05T19:24:07.245Z,28.74
2022-08-05T19:26:14.101Z,28.64
2022-08-05T19:28:43.827Z,28.55
2022-08-05T19:31:17.908Z,28.49
2022-08-05T19:33:56.312Z,28.41
2022-08-05T19:36:26.771Z,28.31
2022-08-05T19:39:00.748Z,28.22
2022-08-05T19:41:58.386Z,28.15
2022-08-05T19:44:19.870Z,28.05
2022-08-05T19:46:50.163Z,27.97
2022-08-05T19:49:19.197Z,27.87
2022-08-05T19:52:05.131Z,27.82
2022-08-05T19:54:37.578Z,27.72
2022-08-05T19:57:09.119Z,27.65
2022-08-05T19:59:59.564Z,27.56
2022-08-05T20:02:32.742Z,27.47
2022-08-05T20:05:05.222Z,27.40
2022-08-05T20:07:47.312Z,27.32
2022-08-05T20:10:22.140Z,27.26
2022-08-05T20:12:56.535Z,27.21
2022-08-05T20:15:52.407Z,27.17
2022-08-05T20:18:33.847Z,27.13
2022-08-05T20:21:06.708Z,27.06
2022-08-05T20:23:50.049Z,27.01
2022-08-05T20:26:28.352Z,26.98
2022-08-05T20:29:00.743Z,26.90
2022-08-05T20:31:41.967Z,26.85
2022-08-05T20:34:20.180Z,26.78
2022-08-05T20:36:50.115Z,26.75
2022-08-05T20:39:23.448Z,26.68
2022-08-05T20:41:55.031Z,26.62
2022-08-05T20:44:37.843Z,26.53
2022-08-05T20:47:07.846Z,26.48
2022-08-05T20:49:40.203Z,26.41
2022-08-05T20:52:12.486Z,26.31
2022-08-05T20:55:54.399Z,26.31
2022-08-05T20:57:43.009Z,26.27
2022-08-05T21:00:40.377Z,26.23
2022-08-05T21:07:19.614Z,25.99
2022-08-05T21:09:53.829Z,26.05
2022-08-05T21:12:26.689Z,25.99
2022-08-05T21:14:56.368Z,25.98
2022-08-05T21:17:28.505Z,25.93
2022-08-05T21:19:57.757Z,25.82
2022-08-05T21:22:28.643Z,25.49
2022-08-05T21:24:57.766Z,24.93
2022-08-05T21:27:27.293Z,24.35
2022-08-05T21:29:58.662Z,23.93
2022-08-05T21:32:32.186Z,23.55
2022-08-05T21:35:08.760Z,23.33
2022-08-05T21:37:53.443Z,23.15
2022-08-05T21:40:24.821Z,23.01
2022-08-05T21:42:54.535Z,22.96
2022-08-05T21:58:16.748Z,23.42
2022-08-05T22:00:51.222Z,23.33
2022-08-05T22:03:48.946Z,23.14
2022-08-05T22:06:10.139Z,23.02
2022-08-05T22:08:42.838Z,22.93
2022-08-05T22:11:15.891Z,22.87
2022-08-05T22:14:33.608Z,22.84
2022-08-05T22:18:58.511Z,22.81
2022-08-05T22:21:27.909Z,22.81
2022-08-05T22:24:40.593Z,22.74
2022-08-05T22:27:24.190Z,22.84
2022-08-05T22:30:17.196Z,22.83
2022-08-05T22:32:47.449Z,22.87
2022-08-05T22:35:20.347Z,22.89
2022-08-05T22:38:00.089Z,22.91
2022-08-05T22:40:30.636Z,22.95
2022-08-05T22:43:00.368Z,23.00
2022-08-05T22:45:32.282Z,23.04
2022-08-05T22:48:01.898Z,23.07
2022-08-05T22:50:30.785Z,23.11
2022-08-05T22:52:58.981Z,23.12
2022-08-05T22:55:27.758Z,23.14
2022-08-05T22:58:16.090Z,23.16
2022-08-05T23:00:56.970Z,23.15
2022-08-05T23:03:59.099Z,23.11
2022-08-05T23:06:13.912Z,23.07
2022-08-05T23:08:50.362Z,23.03
2022-08-05T23:11:21.345Z,22.98
2022-08-05T23:13:51.769Z,22.94
2022-08-05T23:16:44.042Z,22.91
2022-08-05T23:19:23.771Z,22.86
2022-08-05T23:21:54.852Z,22.81
2022-08-05T23:24:23.627Z,22.78
2022-08-05T23:26:52.509Z,22.77
2022-08-05T23:29:22.281Z,22.76
2022-08-05T23:31:56.566Z,22.74
2022-08-05T23:34:25.456Z,22.72
2022-08-05T23:36:54.798Z,22.71
2022-08-05T23:39:32.573Z,22.71
2022-08-05T23:42:24.366Z,22.72
2022-08-05T23:44:59.007Z,22.73
2022-08-05T23:47:28.263Z,22.74
2022-08-05T23:50:02.491Z,22.75
2022-08-05T23:52:49.829Z,22.72
2022-08-05T23:55:19.541Z,22.75
2022-08-05T23:57:51.374Z,22.74
